createdAt,value
2023-04-24T00:00:29.538Z,11.77
2023-04-24T00:01:33.500Z,11.76
2023-04-24T00:02:39.796Z,11.74
2023-04-24T00:03:43.359Z,11.77
2023-04-24T00:04:46.123Z,11.73
2023-04-24T00:05:49.479Z,11.72
2023-04-24T00:06:54.745Z,11.55
2023-04-24T00:07:57.398Z,11.57
2023-04-24T00:09:01.454Z,11.60
2023-04-24T00:10:04.626Z,11.59
2023-04-24T00:11:08.892Z,11.57
2023-04-24T00:12:14.567Z,11.56
2023-04-24T00:13:18.101Z,11.50
2023-04-24T00:14:20.749Z,11.52
2023-04-24T00:15:24.769Z,11.52
2023-04-24T00:16:28.289Z,11.52
2023-04-24T00:17:32.103Z,11.54
2023-04-24T00:18:36.365Z,11.64
2023-04-24T00:19:39.818Z,11.59
2023-04-24T00:20:44.514Z,11.57
2023-04-24T00:21:46.714Z,11.61
2023-04-24T00:22:50.348Z,11.60
2023-04-24T00:23:54.429Z,11.59
2023-04-24T00:24:58.295Z,11.63
2023-04-24T00:26:03.584Z,11.61
2023-04-24T00:27:07.067Z,11.64
2023-04-24T00:28:12.907Z,11.60
2023-04-24T00:29:18.267Z,11.60
2023-04-24T00:30:22.149Z,11.45
2023-04-24T00:31:24.571Z,11.39
2023-04-24T00:32:28.892Z,11.38
2023-04-24T00:33:32.278Z,11.34
2023-04-24T00:34:35.903Z,11.41
2023-04-24T00:35:39.945Z,11.35
2023-04-24T00:36:43.668Z,11.32
2023-04-24T00:37:48.082Z,11.24
2023-04-24T00:38:51.065Z,11.00
2023-04-24T00:39:55.407Z,10.88
2023-04-24T00:40:58.510Z,10.77
2023-04-24T00:42:02.945Z,10.64
2023-04-24T00:43:08.388Z,10.55
2023-04-24T00:44:17.055Z,10.51
2023-04-24T00:45:21.193Z,10.48
2023-04-24T00:46:24.535Z,10.50
2023-04-24T00:47:28.195Z,10.52
2023-04-24T00:48:32.444Z,10.50
2023-04-24T00:49:34.989Z,10.55
2023-04-24T00:50:37.554Z,10.58
2023-04-24T00:51:41.068Z,10.51
2023-04-24T00:52:45.290Z,10.49
2023-04-24T00:53:50.587Z,10.42
2023-04-24T00:54:53.669Z,10.48
2023-04-24T00:55:57.802Z,10.57
2023-04-24T00:57:04.237Z,10.61
2023-04-24T00:58:10.515Z,10.62
2023-04-24T00:59:16.464Z,10.62
2023-04-24T01:00:19.548Z,10.63
2023-04-24T01:01:24.358Z,10.57
2023-04-24T01:02:27.288Z,10.51
2023-04-24T01:03:34.582Z,10.61
2023-04-24T01:04:38.518Z,10.64
2023-04-24T01:05:42.195Z,10.61
2023-04-24T01:06:47.276Z,10.62
2023-04-24T01:07:50.592Z,10.70
2023-04-24T01:08:54.004Z,10.75
2023-04-24T01:09:56.841Z,10.74
2023-04-24T01:11:03.840Z,10.75
2023-04-24T01:12:09.205Z,10.74
2023-04-24T01:13:16.408Z,10.74
2023-04-24T01:14:22.161Z,10.73
2023-04-24T01:15:28.716Z,10.66
2023-04-24T01:16:33.568Z,10.57
2023-04-24T01:17:41.500Z,10.55
2023-04-24T01:18:44.868Z,10.60
2023-04-24T01:19:47.234Z,10.62
2023-04-24T01:20:52.353Z,10.65
2023-04-24T01:21:57.450Z,10.63
2023-04-24T01:23:00.944Z,10.66
2023-04-24T01:24:06.223Z,10.71
2023-04-24T01:25:10.041Z,10.66
2023-04-24T01:26:13.963Z,10.65
2023-04-24T01:27:18.200Z,10.66
2023-04-24T01:28:22.030Z,10.70
2023-04-24T01:29:24.324Z,10.69
2023-04-24T01:30:28.400Z,10.78
2023-04-24T01:31:31.849Z,10.73
2023-04-24T01:32:36.073Z,10.75
2023-04-24T01:33:39.460Z,10.82
2023-04-24T01:34:42.949Z,10.79
2023-04-24T01:35:46.551Z,10.84
2023-04-24T01:36:52.141Z,10.83
2023-04-24T01:37:56.498Z,10.79
2023-04-24T01:39:03.024Z,10.76
2023-04-24T01:40:08.016Z,10.74
2023-04-24T01:41:10.865Z,10.76
2023-04-24T01:42:16.902Z,10.75
2023-04-24T01:43:20.498Z,10.83
2023-04-24T01:44:24.724Z,10.85
2023-04-24T01:45:28.647Z,10.89
2023-04-24T01:46:33.262Z,10.86
2023-04-24T01:47:39.308Z,10.87
2023-04-24T01:48:43.313Z,10.89
2023-04-24T01:49:47.428Z,10.88
2023-04-24T01:50:50.886Z,10.87
2023-04-24T01:51:55.248Z,10.84
2023-04-24T01:52:57.930Z,10.82
2023-04-24T01:54:01.385Z,10.81
2023-04-24T01:55:05.936Z,10.86
2023-04-24T01:56:09.414Z,10.87
2023-04-24T01:57:11.894Z,10.78
2023-04-24T01:58:16.348Z,10.81
2023-04-24T01:59:20.483Z,10.77
2023-04-24T02:00:25.982Z,10.76
2023-04-24T02:01:39.081Z,10.74
2023-04-24T02:02:44.955Z,10.74
2023-04-24T02:03:47.061Z,10.77
2023-04-24T02:04:50.457Z,10.74
2023-04-24T02:05:54.133Z,10.74
2023-04-24T02:06:56.804Z,10.74
2023-04-24T02:08:03.283Z,10.73
2023-04-24T02:09:06.776Z,10.74
2023-04-24T02:10:11.854Z,10.78
2023-04-24T02:11:18.031Z,10.76
2023-04-24T02:12:21.327Z,10.75
2023-04-24T02:13:24.827Z,10.77
2023-04-24T02:14:27.271Z,10.78
2023-04-24T02:15:31.613Z,10.74
2023-04-24T02:16:35.597Z,10.78
2023-04-24T02:17:39.443Z,10.77
2023-04-24T02:18:42.631Z,10.81
2023-04-24T02:19:46.084Z,10.69
2023-04-24T02:20:49.391Z,10.64
2023-04-24T02:21:53.704Z,10.73
2023-04-24T02:22:57.218Z,10.73
2023-04-24T02:24:00.161Z,10.64
2023-04-24T02:25:04.418Z,10.61
2023-04-24T02:26:08.999Z,10.67
2023-04-24T02:27:14.081Z,10.70
2023-04-24T02:28:17.353Z,10.70
2023-04-24T02:29:24.367Z,10.73
2023-04-24T02:30:27.721Z,10.74
2023-04-24T02:31:31.962Z,10.67
2023-04-24T02:32:35.465Z,10.71
2023-04-24T02:33:39.577Z,10.73
2023-04-24T02:34:42.933Z,10.70
2023-04-24T02:35:46.279Z,10.71
2023-04-24T02:36:49.571Z,10.77
2023-04-24T02:37:52.856Z,10.79
2023-04-24T02:38:58.992Z,10.82
2023-04-24T02:40:02.590Z,10.82
2023-04-24T02:41:07.675Z,10.81
2023-04-24T02:42:10.322Z,10.79
2023-04-24T02:43:13.630Z,10.76
2023-04-24T02:44:17.027Z,10.79
2023-04-24T02:45:20.654Z,10.79
2023-04-24T02:46:23.899Z,10.80
2023-04-24T02:47:28.640Z,10.79
2023-04-24T02:48:31.857Z,10.77
2023-04-24T02:49:35.926Z,10.76
2023-04-24T02:50:40.345Z,10.76
2023-04-24T02:51:44.909Z,10.75
2023-04-24T02:52:48.515Z,10.78
2023-04-24T02:53:54.908Z,10.80
2023-04-24T02:54:58.673Z,10.79
2023-04-24T02:56:02.090Z,10.80
2023-04-24T02:57:05.563Z,10.81
2023-04-24T02:58:09.384Z,10.78
2023-04-24T02:59:12.051Z,10.80
2023-04-24T03:00:16.291Z,10.76
2023-04-24T03:01:20.023Z,10.78
2023-04-24T03:02:25.917Z,10.86
2023-04-24T03:03:30.524Z,10.75
2023-04-24T03:04:34.356Z,10.72
2023-04-24T03:05:37.618Z,10.72
2023-04-24T03:06:44.711Z,10.78
2023-04-24T03:07:49.905Z,10.86
2023-04-24T03:08:53.192Z,10.92
2023-04-24T03:09:56.501Z,10.88
2023-04-24T03:11:00.110Z,10.88
2023-04-24T03:12:03.196Z,10.83
2023-04-24T03:13:06.806Z,10.83
2023-04-24T03:14:11.568Z,10.86
2023-04-24T03:15:15.073Z,10.93
2023-04-24T03:16:19.748Z,10.99
2023-04-24T03:17:24.692Z,10.97
2023-04-24T03:18:28.192Z,10.99
2023-04-24T03:19:31.797Z,11.07
2023-04-24T03:20:39.487Z,11.23
2023-04-24T03:21:42.761Z,11.28
2023-04-24T03:22:47.675Z,11.42
2023-04-24T03:23:50.828Z,11.40
2023-04-24T03:24:54.659Z,11.53
2023-04-24T03:26:01.653Z,11.53
2023-04-24T03:27:06.358Z,11.53
2023-04-24T03:28:23.035Z,11.53
2023-04-24T03:29:30.221Z,11.57
2023-04-24T03:30:34.292Z,11.60
2023-04-24T03:31:36.859Z,11.65
2023-04-24T03:32:41.071Z,11.80
2023-04-24T03:33:45.992Z,11.95
2023-04-24T03:34:48.862Z,12.07
2023-04-24T03:35:52.479Z,12.15
2023-04-24T03:36:58.123Z,12.44
2023-04-24T03:38:03.041Z,12.65
2023-04-24T03:39:10.203Z,12.86
2023-04-24T03:40:15.318Z,12.82
2023-04-24T03:41:19.081Z,12.86
2023-04-24T03:42:24.015Z,12.85
2023-04-24T03:43:29.994Z,12.80
2023-04-24T03:44:34.219Z,12.76
2023-04-24T03:45:40.560Z,12.80
2023-04-24T03:46:44.689Z,12.89
2023-04-24T03:47:48.491Z,12.92
2023-04-24T03:48:52.305Z,13.03
2023-04-24T03:50:00.732Z,13.00
2023-04-24T03:51:05.143Z,13.10
2023-04-24T03:52:09.938Z,12.99
2023-04-24T03:53:13.420Z,12.92
2023-04-24T03:54:17.968Z,13.00
2023-04-24T03:55:21.580Z,13.08
2023-04-24T03:56:25.289Z,13.11
2023-04-24T03:57:29.336Z,13.15
2023-04-24T03:58:38.175Z,13.28
2023-04-24T03:59:40.943Z,13.45
2023-04-24T04:00:49.741Z,13.54
2023-04-24T04:01:55.145Z,13.40
2023-04-24T04:02:58.898Z,13.51
2023-04-24T04:04:02.162Z,13.68
2023-04-24T04:05:07.732Z,13.83
2023-04-24T04:06:12.697Z,13.94
2023-04-24T04:07:15.384Z,14.17
2023-04-24T04:08:18.988Z,14.36
2023-04-24T04:09:23.148Z,14.47
2023-04-24T04:10:28.525Z,14.54
2023-04-24T04:11:32.338Z,14.49
2023-04-24T04:12:35.051Z,14.64
2023-04-24T04:13:39.112Z,14.68
2023-04-24T04:14:41.479Z,14.82
2023-04-24T04:15:45.613Z,14.99
2023-04-24T04:16:51.481Z,15.28
2023-04-24T04:17:55.374Z,15.13
2023-04-24T04:19:01.138Z,15.23
2023-04-24T04:20:07.397Z,15.15
2023-04-24T04:21:11.418Z,15.15
2023-04-24T04:22:15.431Z,15.09
2023-04-24T04:23:19.534Z,14.96
2023-04-24T04:24:41.941Z,15.09
2023-04-24T04:25:49.468Z,15.13
2023-04-24T04:26:55.249Z,15.80
2023-04-24T04:28:03.653Z,16.62
2023-04-24T04:29:07.779Z,17.16
2023-04-24T04:30:13.058Z,17.34
2023-04-24T04:31:18.390Z,17.77
2023-04-24T04:32:25.620Z,18.26
2023-04-24T04:33:31.724Z,18.20
2023-04-24T04:34:34.801Z,18.50
2023-04-24T04:35:40.533Z,18.87
2023-04-24T04:36:46.340Z,19.06
2023-04-24T04:37:52.616Z,18.73
2023-04-24T04:39:01.259Z,18.42
2023-04-24T04:40:12.035Z,18.28
2023-04-24T04:41:18.428Z,19.07
2023-04-24T04:42:24.227Z,19.36
2023-04-24T04:43:27.814Z,19.52
2023-04-24T04:44:33.191Z,19.23
2023-04-24T04:45:36.644Z,19.76
2023-04-24T04:46:59.100Z,20.21
2023-04-24T04:48:05.341Z,19.85
2023-04-24T04:49:10.204Z,19.96
2023-04-24T04:50:14.131Z,19.99
2023-04-24T04:51:17.438Z,20.32
2023-04-24T04:52:19.816Z,20.79
2023-04-24T04:53:28.403Z,21.01
2023-04-24T04:54:31.685Z,21.26
2023-04-24T04:55:34.769Z,21.97
2023-04-24T04:56:43.084Z,22.65
2023-04-24T04:57:45.980Z,23.41
2023-04-24T04:58:49.181Z,23.78
2023-04-24T04:59:53.205Z,23.79
2023-04-24T05:00:59.876Z,24.47
2023-04-24T05:02:05.661Z,25.75
2023-04-24T05:03:20.180Z,26.57
2023-04-24T05:04:13.335Z,27.63
2023-04-24T05:05:21.424Z,28.26
2023-04-24T05:06:26.015Z,28.26
2023-04-24T05:07:33.121Z,28.44
2023-04-24T05:08:37.290Z,29.09
2023-04-24T05:09:42.416Z,29.49
2023-04-24T05:10:46.826Z,29.23
2023-04-24T05:11:50.985Z,29.44
2023-04-24T05:12:55.619Z,29.48
2023-04-24T05:13:59.428Z,27.89
2023-04-24T05:15:05.132Z,26.88
2023-04-24T05:16:10.629Z,26.20
2023-04-24T05:17:13.765Z,24.93
2023-04-24T05:18:18.359Z,23.67
2023-04-24T05:19:22.495Z,23.06
2023-04-24T05:20:28.940Z,23.17
2023-04-24T05:21:34.430Z,24.73
2023-04-24T05:22:37.552Z,26.07
2023-04-24T05:23:40.513Z,26.95
2023-04-24T05:24:42.721Z,25.57
2023-04-24T05:26:03.515Z,23.93
2023-04-24T05:27:08.350Z,22.61
2023-04-24T05:28:13.080Z,21.94
2023-04-24T05:29:16.505Z,21.43
2023-04-24T05:30:20.355Z,20.88
2023-04-24T05:31:22.888Z,20.42
2023-04-24T05:32:28.417Z,19.89
2023-04-24T05:33:36.092Z,19.27
2023-04-24T05:34:39.972Z,19.29
2023-04-24T05:35:49.005Z,19.41
2023-04-24T05:36:52.480Z,19.31
2023-04-24T05:37:57.070Z,19.29
2023-04-24T05:39:02.170Z,19.35
2023-04-24T05:40:05.816Z,19.44
2023-04-24T05:41:09.533Z,19.77
2023-04-24T05:42:13.965Z,21.23
2023-04-24T05:43:17.413Z,22.77
2023-04-24T05:44:19.979Z,23.28
2023-04-24T05:45:22.529Z,24.27
2023-04-24T05:46:25.853Z,25.51
2023-04-24T05:47:29.147Z,25.75
2023-04-24T05:48:33.868Z,26.06
2023-04-24T05:49:38.434Z,25.79
2023-04-24T05:50:43.508Z,24.30
2023-04-24T05:51:48.797Z,24.17
2023-04-24T05:52:53.642Z,24.03
2023-04-24T05:54:03.255Z,24.18
2023-04-24T05:55:06.437Z,24.07
2023-04-24T05:56:10.230Z,24.46
2023-04-24T05:57:13.680Z,24.32
2023-04-24T05:58:18.793Z,24.74
2023-04-24T05:59:25.963Z,25.72
2023-04-24T06:00:29.604Z,25.48
2023-04-24T06:01:35.266Z,24.67
2023-04-24T06:02:41.756Z,24.18
2023-04-24T06:03:48.034Z,24.34
2023-04-24T06:04:51.700Z,24.58
2023-04-24T06:05:56.909Z,24.83
2023-04-24T06:07:00.534Z,25.03
2023-04-24T06:08:04.364Z,25.46
2023-04-24T06:09:10.146Z,26.18
2023-04-24T06:10:13.767Z,26.78
2023-04-24T06:11:19.351Z,26.77
2023-04-24T06:12:23.196Z,26.87
2023-04-24T06:13:28.556Z,27.43
2023-04-24T06:14:50.152Z,27.98
2023-04-24T06:15:55.236Z,27.31
2023-04-24T06:17:00.614Z,26.69
2023-04-24T06:18:10.567Z,27.07
2023-04-24T06:19:16.516Z,27.63
2023-04-24T06:20:21.362Z,27.23
2023-04-24T06:21:27.555Z,25.88
2023-04-24T06:22:31.688Z,26.08
2023-04-24T06:23:36.655Z,26.65
2023-04-24T06:24:42.364Z,27.06
2023-04-24T06:25:45.821Z,26.99
2023-04-24T06:26:49.362Z,27.43
2023-04-24T06:27:52.553Z,26.81
2023-04-24T06:28:56.319Z,26.08
2023-04-24T06:30:02.446Z,26.16
2023-04-24T06:31:07.502Z,25.58
2023-04-24T06:32:11.220Z,25.66
2023-04-24T06:34:22.089Z,25.99
2023-04-24T06:35:25.451Z,25.05
2023-04-24T06:36:28.636Z,24.62
2023-04-24T06:37:33.920Z,25.51
2023-04-24T06:38:36.513Z,28.46
2023-04-24T06:39:39.359Z,30.17
2023-04-24T06:40:44.536Z,31.56
2023-04-24T06:41:48.048Z,32.12
2023-04-24T06:42:53.534Z,33.90
2023-04-24T06:43:56.963Z,34.96
2023-04-24T06:45:00.748Z,35.12
2023-04-24T06:46:04.177Z,34.21
2023-04-24T06:47:11.299Z,32.63
2023-04-24T06:48:14.583Z,33.75
2023-04-24T06:49:18.215Z,34.93
2023-04-24T06:50:21.723Z,35.68
2023-04-24T06:51:25.857Z,35.48
2023-04-24T06:52:29.154Z,33.44
2023-04-24T06:53:34.512Z,33.91
2023-04-24T06:54:39.142Z,34.38
2023-04-24T06:55:46.329Z,32.40
2023-04-24T06:56:52.342Z,32.63
2023-04-24T06:57:56.930Z,30.11
2023-04-24T06:58:59.465Z,29.04
2023-04-24T07:00:05.107Z,31.47
2023-04-24T07:01:08.286Z,32.96
2023-04-24T07:02:12.298Z,30.51
2023-04-24T07:03:15.665Z,28.47
2023-04-24T07:04:21.340Z,30.32
2023-04-24T07:05:26.446Z,32.79
2023-04-24T07:06:30.379Z,33.62
2023-04-24T07:07:37.225Z,30.73
2023-04-24T07:08:41.903Z,28.75
2023-04-24T07:09:46.872Z,29.57
2023-04-24T07:10:53.369Z,31.63
2023-04-24T07:11:58.141Z,33.44
2023-04-24T07:13:00.707Z,32.91
2023-04-24T07:14:04.115Z,31.77
2023-04-24T07:15:09.232Z,33.01
2023-04-24T07:16:12.817Z,34.32
2023-04-24T07:17:20.262Z,34.49
2023-04-24T07:18:23.789Z,34.09
2023-04-24T07:19:26.843Z,34.36
2023-04-24T07:20:32.526Z,34.95
2023-04-24T07:21:39.196Z,34.81
2023-04-24T07:22:42.061Z,34.60
2023-04-24T07:23:50.262Z,35.26
2023-04-24T07:24:54.095Z,35.06
2023-04-24T07:25:57.809Z,35.59
2023-04-24T07:27:03.421Z,36.32
2023-04-24T07:28:06.491Z,35.58
2023-04-24T07:29:09.888Z,35.76
2023-04-24T07:30:12.558Z,36.39
2023-04-24T07:31:16.182Z,36.64
2023-04-24T07:32:19.568Z,36.00
2023-04-24T07:33:24.011Z,36.52
2023-04-24T07:34:26.698Z,35.82
2023-04-24T07:35:29.553Z,35.62
2023-04-24T07:36:33.794Z,34.78
2023-04-24T07:37:37.838Z,34.42
2023-04-24T07:38:41.858Z,33.53
2023-04-24T07:39:45.655Z,33.62
2023-04-24T07:40:49.901Z,33.88
2023-04-24T07:41:52.573Z,34.52
2023-04-24T07:42:55.974Z,34.28
2023-04-24T07:44:00.104Z,34.79
2023-04-24T07:45:02.866Z,34.93
2023-04-24T07:46:07.786Z,34.99
2023-04-24T07:47:12.938Z,34.64
2023-04-24T07:48:17.717Z,34.11
2023-04-24T07:49:20.149Z,34.08
2023-04-24T07:50:23.723Z,34.24
2023-04-24T07:51:28.910Z,34.75
2023-04-24T07:52:31.276Z,33.73
2023-04-24T07:53:34.479Z,33.49
2023-04-24T07:54:39.890Z,33.74
2023-04-24T07:55:46.351Z,33.60
2023-04-24T07:56:49.787Z,32.87
2023-04-24T07:57:53.066Z,32.85
2023-04-24T07:58:57.650Z,33.09
2023-04-24T08:00:02.108Z,32.36
2023-04-24T08:01:07.170Z,32.53
2023-04-24T08:02:11.528Z,32.27
2023-04-24T08:03:18.153Z,32.32
2023-04-24T08:04:24.024Z,32.11
2023-04-24T08:05:29.837Z,32.19
2023-04-24T08:06:33.654Z,31.68
2023-04-24T08:07:37.474Z,31.32
2023-04-24T08:08:44.206Z,30.81
2023-04-24T08:09:48.548Z,30.92
2023-04-24T08:10:53.390Z,30.86
2023-04-24T08:11:56.598Z,30.06
2023-04-24T08:13:00.009Z,29.97
2023-04-24T08:14:03.242Z,29.57
2023-04-24T08:15:07.321Z,29.89
2023-04-24T08:16:11.794Z,29.87
2023-04-24T08:17:15.030Z,29.66
2023-04-24T08:18:19.774Z,29.55
2023-04-24T08:19:24.059Z,29.50
2023-04-24T08:20:29.248Z,29.10
2023-04-24T08:21:33.691Z,28.43
2023-04-24T08:22:36.930Z,28.35
2023-04-24T08:23:39.332Z,28.51
2023-04-24T08:24:41.473Z,28.89
2023-04-24T08:25:45.648Z,29.02
2023-04-24T08:26:55.492Z,29.17
2023-04-24T08:27:57.842Z,28.98
2023-04-24T08:29:00.425Z,29.01
2023-04-24T08:30:05.719Z,29.11
2023-04-24T08:31:09.860Z,29.29
2023-04-24T08:32:16.410Z,29.42
2023-04-24T08:33:20.201Z,29.40
2023-04-24T08:34:23.781Z,28.78
2023-04-24T08:35:27.301Z,28.70
2023-04-24T08:36:43.539Z,28.57
2023-04-24T08:37:37.858Z,29.14
2023-04-24T08:38:43.168Z,28.79
2023-04-24T08:39:46.856Z,28.61
2023-04-24T08:40:51.167Z,28.17
2023-04-24T08:41:55.324Z,28.37
2023-04-24T08:43:00.213Z,28.57
2023-04-24T08:44:04.259Z,28.41
2023-04-24T08:45:10.594Z,28.46
2023-04-24T08:46:16.268Z,28.55
2023-04-24T08:47:22.679Z,28.81
2023-04-24T08:48:31.632Z,29.04
2023-04-24T08:49:34.685Z,28.38
2023-04-24T08:50:38.533Z,28.59
2023-04-24T08:51:42.012Z,28.56
2023-04-24T08:52:44.896Z,28.83
2023-04-24T08:53:49.512Z,28.48
2023-04-24T08:54:54.307Z,27.87
2023-04-24T08:55:59.253Z,27.51
2023-04-24T08:57:03.876Z,27.73
2023-04-24T08:58:07.626Z,27.54
2023-04-24T08:59:11.985Z,26.85
2023-04-24T09:00:15.477Z,26.70
2023-04-24T09:01:21.303Z,26.42
2023-04-24T09:02:25.334Z,26.56
2023-04-24T09:03:28.544Z,26.13
2023-04-24T09:04:33.589Z,25.78
2023-04-24T09:05:39.590Z,25.21
2023-04-24T09:06:43.748Z,25.11
2023-04-24T09:07:49.534Z,25.16
2023-04-24T09:08:54.916Z,25.11
2023-04-24T09:09:59.328Z,24.86
2023-04-24T09:11:03.894Z,24.61
2023-04-24T09:12:14.504Z,24.85
2023-04-24T09:13:20.715Z,24.84
2023-04-24T09:14:26.020Z,24.32
2023-04-24T09:15:29.626Z,24.33
2023-04-24T09:16:35.158Z,24.14
2023-04-24T09:17:38.727Z,24.39
2023-04-24T09:18:42.125Z,24.41
2023-04-24T09:19:46.677Z,24.43
2023-04-24T09:21:03.670Z,24.43
2023-04-24T09:22:07.975Z,24.45
2023-04-24T09:23:13.576Z,24.32
2023-04-24T09:24:24.301Z,24.38
2023-04-24T09:25:34.904Z,24.34
2023-04-24T09:26:37.254Z,23.78
2023-04-24T09:27:45.813Z,23.93
2023-04-24T09:29:57.918Z,24.17
2023-04-24T09:31:09.513Z,24.28
2023-04-24T09:32:22.080Z,24.28
2023-04-24T09:33:26.598Z,24.15
2023-04-24T09:34:31.144Z,23.99
2023-04-24T09:35:34.566Z,24.34
2023-04-24T09:36:38.352Z,24.50
2023-04-24T09:37:43.646Z,24.52
2023-04-24T09:38:49.166Z,24.39
2023-04-24T09:40:11.970Z,24.63
2023-04-24T09:41:15.665Z,24.29
2023-04-24T09:42:19.959Z,24.34
2023-04-24T09:43:23.625Z,24.57
2023-04-24T09:44:28.818Z,24.92
2023-04-24T09:45:38.572Z,25.71
2023-04-24T09:46:44.087Z,26.28
2023-04-24T09:47:47.993Z,26.50
2023-04-24T09:48:52.223Z,26.77
2023-04-24T09:50:00.152Z,27.01
2023-04-24T09:51:04.842Z,27.53
2023-04-24T09:52:08.282Z,27.54
2023-04-24T09:53:13.308Z,27.44
2023-04-24T09:54:18.011Z,27.73
2023-04-24T09:55:22.322Z,27.86
2023-04-24T09:56:26.701Z,27.21
2023-04-24T09:57:31.207Z,26.73
2023-04-24T09:58:36.512Z,26.41
2023-04-24T09:59:47.641Z,25.52
2023-04-24T10:00:50.309Z,25.54
2023-04-24T10:01:54.258Z,24.95
2023-04-24T10:03:01.199Z,24.67
2023-04-24T10:04:04.876Z,24.72
2023-04-24T10:05:08.648Z,24.81
2023-04-24T10:06:13.687Z,24.61
2023-04-24T10:07:15.814Z,24.59
2023-04-24T10:08:19.753Z,24.37
2023-04-24T10:09:27.520Z,24.42
2023-04-24T10:10:32.191Z,24.14
2023-04-24T10:11:35.912Z,23.87
2023-04-24T10:12:39.831Z,23.64
2023-04-24T10:13:47.080Z,23.90
2023-04-24T10:14:50.697Z,24.00
2023-04-24T10:15:54.703Z,24.00
2023-04-24T10:16:58.461Z,24.20
2023-04-24T10:18:02.086Z,24.20
2023-04-24T10:19:04.934Z,24.27
2023-04-24T10:20:09.982Z,24.26
2023-04-24T10:21:14.685Z,24.37
2023-04-24T10:22:20.058Z,24.77
2023-04-24T10:23:24.908Z,24.62
2023-04-24T10:24:31.050Z,24.34
2023-04-24T10:25:36.395Z,24.37
2023-04-24T10:26:40.428Z,24.19
2023-04-24T10:27:44.883Z,24.45
2023-04-24T10:28:48.717Z,23.85
2023-04-24T10:29:53.983Z,23.69
2023-04-24T10:30:58.415Z,23.68
2023-04-24T10:32:02.531Z,24.36
2023-04-24T10:33:06.451Z,24.20
2023-04-24T10:34:10.633Z,24.70
2023-04-24T10:35:15.912Z,24.93
2023-04-24T10:36:20.029Z,24.33
2023-04-24T10:37:23.955Z,23.98
2023-04-24T10:38:28.924Z,24.62
2023-04-24T10:39:33.242Z,24.95
2023-04-24T10:40:38.839Z,24.33
2023-04-24T10:41:43.634Z,24.17
2023-04-24T10:42:53.473Z,24.48
2023-04-24T10:44:09.135Z,24.54
2023-04-24T10:45:20.233Z,24.66
2023-04-24T10:46:24.494Z,24.56
2023-04-24T10:47:27.775Z,24.27
2023-04-24T10:48:30.110Z,24.40
2023-04-24T10:49:33.834Z,24.22
2023-04-24T10:50:54.888Z,24.20
2023-04-24T10:52:03.278Z,24.39
2023-04-24T10:53:11.819Z,24.16
2023-04-24T10:54:26.035Z,23.96
2023-04-24T10:55:43.271Z,24.22
2023-04-24T10:56:46.776Z,23.84
2023-04-24T10:58:04.901Z,23.77
2023-04-24T10:59:10.079Z,23.83
2023-04-24T11:00:18.391Z,23.74
2023-04-24T11:01:33.023Z,23.71
2023-04-24T11:02:40.244Z,23.87
2023-04-24T11:03:47.928Z,23.93
2023-04-24T11:04:52.998Z,23.97
2023-04-24T11:06:07.452Z,23.99
2023-04-24T11:07:12.306Z,24.23
2023-04-24T11:08:18.913Z,24.27
2023-04-24T11:09:22.242Z,24.43
2023-04-24T11:10:28.789Z,24.24
2023-04-24T11:11:31.338Z,24.40
2023-04-24T11:12:37.886Z,24.74
2023-04-24T11:13:53.093Z,24.82
2023-04-24T11:15:02.374Z,24.60
2023-04-24T11:16:25.022Z,24.56
2023-04-24T11:17:39.402Z,24.54
2023-04-24T11:18:47.632Z,24.43
2023-04-24T11:19:54.668Z,24.52
2023-04-24T11:21:01.325Z,24.14
2023-04-24T11:22:08.068Z,24.21
2023-04-24T11:23:12.292Z,24.43
2023-04-24T11:24:38.088Z,24.73
2023-04-24T11:25:42.893Z,24.68
2023-04-24T11:26:46.738Z,24.93
2023-04-24T11:27:50.662Z,24.78
2023-04-24T11:28:55.839Z,24.79
2023-04-24T11:30:02.270Z,24.27
2023-04-24T11:31:24.737Z,23.85
2023-04-24T11:32:30.838Z,23.66
2023-04-24T11:33:34.420Z,23.83
2023-04-24T11:34:41.226Z,23.62
2023-04-24T11:35:43.708Z,23.69
2023-04-24T11:36:49.605Z,23.74
2023-04-24T11:39:01.848Z,23.41
2023-04-24T11:40:09.590Z,23.55
2023-04-24T11:41:16.523Z,23.47
2023-04-24T11:42:19.771Z,23.30
2023-04-24T11:43:24.031Z,23.32
2023-04-24T11:44:29.806Z,23.26
2023-04-24T11:45:33.636Z,23.04
2023-04-24T11:46:39.188Z,22.64
2023-04-24T11:47:43.458Z,22.67
2023-04-24T11:48:47.702Z,22.73
2023-04-24T11:49:51.941Z,22.72
2023-04-24T11:50:55.653Z,22.74
2023-04-24T11:52:01.026Z,22.74
2023-04-24T11:53:04.461Z,22.63
2023-04-24T11:54:09.521Z,22.65
2023-04-24T11:55:17.601Z,22.65
2023-04-24T11:56:22.804Z,22.12
2023-04-24T11:57:28.804Z,22.05
2023-04-24T11:58:39.595Z,22.45
2023-04-24T12:00:50.928Z,22.09
2023-04-24T12:01:54.297Z,22.45
2023-04-24T12:03:02.821Z,22.42
2023-04-24T12:04:06.314Z,22.87
2023-04-24T12:05:09.917Z,23.37
2023-04-24T12:06:13.788Z,23.67
2023-04-24T12:07:17.358Z,23.47
2023-04-24T12:08:31.332Z,23.38
2023-04-24T12:09:52.025Z,23.64
2023-04-24T12:10:55.039Z,23.97
2023-04-24T12:11:58.650Z,24.01
2023-04-24T12:13:01.674Z,24.12
2023-04-24T12:14:13.118Z,24.27
2023-04-24T12:15:17.679Z,24.21
2023-04-24T12:16:21.141Z,24.28
2023-04-24T12:17:32.401Z,24.31
2023-04-24T12:18:36.000Z,24.45
2023-04-24T12:19:40.732Z,24.35
2023-04-24T12:20:44.577Z,24.23
2023-04-24T12:21:51.605Z,24.20
2023-04-24T12:22:55.316Z,24.13
2023-04-24T12:23:58.827Z,23.76
2023-04-24T12:25:07.086Z,23.35
2023-04-24T12:26:10.525Z,22.95
2023-04-24T12:27:17.070Z,23.14
2023-04-24T12:28:20.772Z,22.92
2023-04-24T12:29:23.979Z,22.74
2023-04-24T12:30:31.139Z,22.61
2023-04-24T12:31:35.543Z,22.68
2023-04-24T12:32:39.822Z,22.89
2023-04-24T12:33:44.824Z,22.99
2023-04-24T12:34:52.972Z,23.24
2023-04-24T12:35:57.450Z,23.06
2023-04-24T12:37:02.191Z,23.19
2023-04-24T12:38:08.689Z,23.35
2023-04-24T12:39:19.224Z,23.25
2023-04-24T12:40:23.052Z,23.30
2023-04-24T12:41:26.452Z,23.63
2023-04-24T12:42:29.800Z,23.84
2023-04-24T12:43:33.570Z,24.08
2023-04-24T12:44:39.707Z,24.02
2023-04-24T12:45:44.135Z,23.99
2023-04-24T12:46:50.478Z,23.74
2023-04-24T12:47:53.264Z,23.72
2023-04-24T12:48:56.628Z,23.58
2023-04-24T12:49:59.215Z,23.91
2023-04-24T12:51:02.056Z,23.43
2023-04-24T12:52:04.442Z,23.49
2023-04-24T12:53:07.186Z,23.45
2023-04-24T12:54:10.493Z,23.57
2023-04-24T12:55:14.548Z,23.41
2023-04-24T12:56:18.955Z,23.69
2023-04-24T12:57:22.261Z,23.98
2023-04-24T12:58:25.893Z,23.58
2023-04-24T12:59:28.110Z,23.52
2023-04-24T13:00:32.706Z,23.10
2023-04-24T13:01:35.232Z,23.05
2023-04-24T13:02:40.769Z,22.89
2023-04-24T13:03:45.158Z,23.02
2023-04-24T13:04:47.950Z,23.42
2023-04-24T13:05:50.298Z,23.84
2023-04-24T13:06:57.771Z,23.95
2023-04-24T13:08:01.493Z,23.90
2023-04-24T13:09:04.917Z,24.16
2023-04-24T13:10:08.827Z,24.32
2023-04-24T13:11:15.411Z,24.28
2023-04-24T13:12:19.108Z,24.26
2023-04-24T13:13:24.004Z,24.25
2023-04-24T13:14:32.478Z,24.31
2023-04-24T13:15:35.865Z,24.32
2023-04-24T13:16:39.259Z,23.80
2023-04-24T13:17:42.897Z,23.78
2023-04-24T13:18:47.615Z,23.35
2023-04-24T13:19:51.780Z,23.43
2023-04-24T13:20:55.358Z,23.50
2023-04-24T13:21:59.521Z,23.47
2023-04-24T13:23:02.904Z,23.58
2023-04-24T13:24:07.081Z,23.84
2023-04-24T13:25:10.933Z,23.97
2023-04-24T13:26:17.198Z,23.78
2023-04-24T13:27:25.255Z,23.92
2023-04-24T13:28:30.397Z,24.35
2023-04-24T13:29:33.648Z,24.43
2023-04-24T13:30:36.085Z,24.15
2023-04-24T13:31:41.713Z,23.84
2023-04-24T13:32:45.345Z,23.71
2023-04-24T13:33:48.505Z,23.92
2023-04-24T13:34:51.987Z,23.70
2023-04-24T13:35:55.696Z,23.74
2023-04-24T13:37:02.118Z,23.63
2023-04-24T13:38:09.710Z,23.80
2023-04-24T13:39:12.793Z,23.77
2023-04-24T13:40:18.992Z,23.96
2023-04-24T13:41:21.683Z,23.05
2023-04-24T13:42:24.970Z,22.93
2023-04-24T13:43:28.850Z,22.77
2023-04-24T13:44:32.462Z,22.91
2023-04-24T13:45:35.793Z,22.79
2023-04-24T13:46:39.858Z,23.18
2023-04-24T13:47:44.300Z,22.77
2023-04-24T13:48:48.726Z,22.72
2023-04-24T13:49:54.826Z,22.48
2023-04-24T13:50:59.053Z,22.43
2023-04-24T13:52:05.159Z,22.48
2023-04-24T13:53:10.566Z,22.61
2023-04-24T13:54:15.959Z,22.24
2023-04-24T13:55:18.323Z,22.02
2023-04-24T13:56:21.197Z,22.30
2023-04-24T13:57:24.308Z,22.39
2023-04-24T13:58:27.987Z,22.34
2023-04-24T13:59:31.290Z,22.49
2023-04-24T14:00:34.727Z,21.80
2023-04-24T14:01:39.172Z,21.56